Time;durP1;ratioP1;P1;durP2;ratioP2;P2;SDS_P1;SDS_P2;PMS_P1;PMS_P2;Temp;Humidity;BMP_temperature;BMP_pressure;BME280_temperature;BME280_humidity;BME280_pressure;Samples;Min_cycle;Max_cycle;Signal;HPM_P1;HPM_P2
2023/07/03 00:00:42;;;;;;;7.22;4.60;;;17.00;99.90;;;;;;5118615;27;20031;-74
2023/07/03 00:03:13;;;;;;;7.75;4.45;;;17.00;99.90;;;;;;5136469;27;20024;-74
2023/07/03 00:05:46;;;;;;;9.55;4.85;;;17.00;99.90;;;;;;5136390;27;20027;-74
2023/07/03 00:08:14;;;;;;;7.65;4.88;;;16.90;99.90;;;;;;5136352;27;20418;-74
2023/07/03 00:10:39;;;;;;;6.88;4.57;;;16.80;99.90;;;;;;5136605;27;20035;-75
2023/07/03 00:13:05;;;;;;;7.22;4.72;;;16.80;99.90;;;;;;5136188;27;20023;-75
2023/07/03 00:15:32;;;;;;;7.05;4.45;;;16.80;99.90;;;;;;5135975;27;20076;-74
2023/07/03 00:17:58;;;;;;;9.27;4.65;;;16.90;99.90;;;;;;5136159;27;20027;-75
2023/07/03 00:20:23;;;;;;;6.95;4.75;;;16.90;99.90;;;;;;5117762;27;20030;-75
2023/07/03 00:22:52;;;;;;;7.70;4.40;;;16.90;99.90;;;;;;5136080;27;20496;-74
2023/07/03 00:25:18;;;;;;;9.23;5.53;;;16.90;99.90;;;;;;5136728;27;20026;-74
2023/07/03 00:27:44;;;;;;;7.45;4.63;;;17.00;99.90;;;;;;5135982;27;20031;-74
2023/07/03 00:30:10;;;;;;;8.68;5.00;;;17.00;99.90;;;;;;5136220;27;20032;-74
2023/07/03 00:32:36;;;;;;;7.50;4.90;;;17.00;99.90;;;;;;5135846;27;20019;-75
2023/07/03 00:35:03;;;;;;;7.22;5.03;;;16.90;99.90;;;;;;5135966;27;20056;-74
2023/07/03 00:37:29;;;;;;;8.05;5.25;;;16.90;99.90;;;;;;5136036;27;20023;-75
2023/07/03 00:39:55;;;;;;;11.48;5.40;;;16.80;99.90;;;;;;5135709;27;20020;-74
2023/07/03 00:42:25;;;;;;;7.95;5.13;;;16.70;99.90;;;;;;5135670;27;20032;-75
2023/07/03 00:44:51;;;;;;;8.48;5.32;;;16.70;99.90;;;;;;5135675;27;20068;-74
2023/07/03 00:47:16;;;;;;;8.50;5.35;;;16.60;99.90;;;;;;5135598;27;20031;-75
2023/07/03 00:49:42;;;;;;;8.57;5.28;;;16.70;99.90;;;;;;5117257;27;20407;-75
2023/07/03 00:52:11;;;;;;;10.68;5.35;;;16.70;99.90;;;;;;5135432;27;20023;-74
2023/07/03 00:54:37;;;;;;;8.57;5.60;;;16.70;99.90;;;;;;5135593;27;20469;-74
2023/07/03 00:57:03;;;;;;;11.02;5.65;;;16.70;99.90;;;;;;5136010;27;20023;-75
2023/07/03 00:59:29;;;;;;;6.95;4.82;;;16.60;99.90;;;;;;5135900;27;20027;-75
2023/07/03 01:02:12;;;;;;;7.57;4.97;;;16.60;99.90;;;;;;5135784;27;20054;-74
2023/07/03 01:04:45;;;;;;;8.27;5.13;;;16.50;99.90;;;;;;5135404;27;20039;-74
2023/07/03 01:07:14;;;;;;;10.15;5.78;;;16.40;99.90;;;;;;5135558;27;20107;-74
2023/07/03 01:09:55;;;;;;;8.40;4.97;;;16.40;99.90;;;;;;5135194;27;20030;-75
2023/07/03 01:12:24;;;;;;;7.63;4.93;;;16.30;99.90;;;;;;5135988;27;20038;-74
2023/07/03 01:14:51;;;;;;;7.45;4.75;;;16.30;99.90;;;;;;5134812;27;20055;-74
2023/07/03 01:17:18;;;;;;;8.88;5.15;;;16.30;99.90;;;;;;5117142;27;20023;-74
2023/07/03 01:19:49;;;;;;;7.95;5.55;;;16.40;99.90;;;;;;5135006;27;20068;-74
2023/07/03 01:22:22;;;;;;;8.02;5.45;;;16.40;99.90;;;;;;5116531;27;20574;-74
2023/07/03 01:25:08;;;;;;;6.15;4.28;;;16.50;99.90;;;;;;5135059;27;20034;-75
2023/07/03 01:27:38;;;;;;;7.15;5.00;;;16.50;99.90;;;;;;5134900;27;20024;-74
2023/07/03 01:30:12;;;;;;;6.50;4.70;;;16.50;99.90;;;;;;5135132;27;20023;-74
2023/07/03 01:32:39;;;;;;;6.72;4.30;;;16.50;99.90;;;;;;5134840;27;20027;-74
2023/07/03 01:35:08;;;;;;;7.72;4.70;;;16.50;99.90;;;;;;5134638;27;20031;-74
2023/07/03 01:37:37;;;;;;;8.15;4.68;;;16.50;99.90;;;;;;5134265;27;20019;-75
2023/07/03 01:40:06;;;;;;;7.97;4.68;;;16.50;99.90;;;;;;5134930;27;20019;-75
2023/07/03 01:42:35;;;;;;;7.38;4.40;;;16.50;99.90;;;;;;5116591;27;20019;-75
2023/07/03 01:45:02;;;;;;;6.95;4.57;;;16.60;99.90;;;;;;5134844;27;20023;-74
2023/07/03 01:47:27;;;;;;;7.60;4.93;;;16.50;99.90;;;;;;5117001;27;20039;-74
2023/07/03 01:49:53;;;;;;;7.65;4.32;;;16.50;99.90;;;;;;5135092;27;20468;-74
2023/07/03 01:52:21;;;;;;;8.43;4.78;;;16.50;99.90;;;;;;5134502;27;20127;-74
2023/07/03 01:55:20;;;;;;;8.77;4.65;;;16.50;99.90;;;;;;5134508;27;20431;-74
2023/07/03 01:58:03;;;;;;;6.60;4.47;;;16.50;99.90;;;;;;5134458;27;20018;-75
2023/07/03 02:00:40;;;;;;;8.68;5.65;;;16.50;99.90;;;;;;5134940;27;20023;-72
2023/07/03 02:03:16;;;;;;;8.77;5.60;;;16.50;99.90;;;;;;5134697;27;20054;-72
2023/07/03 02:05:42;;;;;;;9.73;5.95;;;16.40;99.90;;;;;;5134562;28;20396;-72
2023/07/03 02:08:09;;;;;;;8.38;5.25;;;16.30;99.90;;;;;;5115906;28;20028;-72
2023/07/03 02:10:36;;;;;;;8.48;5.63;;;16.30;99.90;;;;;;5134829;28;20373;-72
2023/07/03 02:13:02;;;;;;;8.20;5.22;;;16.30;99.90;;;;;;5134434;28;20027;-72
2023/07/03 02:15:27;;;;;;;9.50;6.20;;;16.20;99.90;;;;;;5134086;28;20028;-72
2023/07/03 02:17:54;;;;;;;7.93;5.78;;;16.20;99.90;;;;;;5134467;28;20106;-72
2023/07/03 02:20:20;;;;;;;9.32;6.00;;;16.10;99.90;;;;;;5134216;28;20393;-72
2023/07/03 02:22:46;;;;;;;10.93;6.50;;;16.10;99.90;;;;;;5134400;28;20103;-72
2023/07/03 02:25:13;;;;;;;10.57;7.00;;;16.10;99.90;;;;;;5134201;28;20052;-72
2023/07/03 02:27:44;;;;;;;10.27;6.72;;;16.10;99.90;;;;;;5134705;28;20023;-74
2023/07/03 02:30:11;;;;;;;9.32;6.35;;;16.10;99.90;;;;;;5134458;28;20069;-75
2023/07/03 02:32:39;;;;;;;8.23;5.90;;;16.10;99.90;;;;;;5099584;28;20031;-74
2023/07/03 02:35:06;;;;;;;8.52;5.97;;;16.10;99.90;;;;;;5133910;28;20100;-74
2023/07/03 02:37:32;;;;;;;9.32;6.63;;;16.20;99.90;;;;;;5116137;28;20380;-75
2023/07/03 02:39:58;;;;;;;10.27;6.00;;;16.20;99.90;;;;;;5134077;28;20015;-74
2023/07/03 02:42:23;;;;;;;8.00;5.28;;;16.10;99.90;;;;;;5134040;28;20049;-74
2023/07/03 02:44:49;;;;;;;7.45;5.00;;;16.10;99.90;;;;;;5133899;28;20497;-74
2023/07/03 02:47:15;;;;;;;7.95;5.10;;;16.00;99.90;;;;;;5134143;28;20034;-75
2023/07/03 02:49:41;;;;;;;6.53;4.72;;;16.00;99.90;;;;;;5135873;27;20031;-74
2023/07/03 02:52:07;;;;;;;7.28;4.63;;;16.00;99.90;;;;;;5137822;27;20545;-75
2023/07/03 02:54:33;;;;;;;10.90;5.28;;;16.10;99.90;;;;;;5137730;27;20165;-74
2023/07/03 02:56:59;;;;;;;7.35;4.63;;;16.10;99.90;;;;;;5137819;27;20096;-74
2023/07/03 02:59:24;;;;;;;7.93;4.93;;;16.20;99.90;;;;;;5138371;27;20484;-75
2023/07/03 03:01:50;;;;;;;6.97;4.60;;;16.20;99.90;;;;;;5138245;27;20031;-74
2023/07/03 03:04:16;;;;;;;7.95;4.22;;;16.20;99.90;;;;;;5138146;27;20027;-74
2023/07/03 03:06:45;;;;;;;7.35;4.68;;;16.30;99.90;;;;;;5119771;27;20342;-74
2023/07/03 03:09:11;;;;;;;6.90;4.65;;;16.30;99.90;;;;;;5137646;27;20092;-75
2023/07/03 03:11:37;;;;;;;6.40;4.15;;;16.30;99.90;;;;;;5137562;27;20027;-74
2023/07/03 03:14:03;;;;;;;7.63;4.75;;;16.20;99.90;;;;;;5118780;27;20061;-74
2023/07/03 03:16:29;;;;;;;8.30;5.18;;;16.20;99.90;;;;;;5137714;27;20027;-74
2023/07/03 03:18:54;;;;;;;8.48;4.60;;;16.10;99.90;;;;;;5137648;27;20030;-74
2023/07/03 03:21:20;;;;;;;10.23;4.97;;;16.10;99.90;;;;;;5137589;27;20050;-74
2023/07/03 03:23:46;;;;;;;7.18;5.03;;;16.00;99.90;;;;;;5137555;27;20496;-74
2023/07/03 03:26:12;;;;;;;8.45;5.25;;;15.90;99.90;;;;;;5137233;27;20068;-75
2023/07/03 03:28:38;;;;;;;8.73;5.28;;;15.90;99.90;;;;;;5118937;27;20434;-75
2023/07/03 03:31:05;;;;;;;7.25;4.85;;;15.90;99.90;;;;;;5137123;27;20100;-74
2023/07/03 03:33:30;;;;;;;8.20;5.20;;;15.90;99.90;;;;;;5118955;27;20027;-75
2023/07/03 03:35:56;;;;;;;7.57;4.78;;;15.90;99.90;;;;;;5136944;27;20031;-74
2023/07/03 03:38:22;;;;;;;11.07;5.50;;;16.00;99.90;;;;;;5137047;27;20027;-74
2023/07/03 03:40:58;;;;;;;7.35;4.57;;;16.00;99.90;;;;;;5136895;27;20020;-73
2023/07/03 03:43:24;;;;;;;7.70;4.65;;;16.10;99.90;;;;;;5118482;27;20115;-74
2023/07/03 03:45:57;;;;;;;10.32;5.00;;;16.00;99.90;;;;;;5136767;27;20126;-73
2023/07/03 03:48:24;;;;;;;9.70;5.00;;;16.10;99.90;;;;;;5136754;27;20516;-74
2023/07/03 03:50:49;;;;;;;6.90;4.60;;;16.00;99.90;;;;;;5136842;27;20119;-74
2023/07/03 03:53:15;;;;;;;7.50;5.10;;;16.00;99.90;;;;;;5118583;27;20055;-74
2023/07/03 03:55:41;;;;;;;9.65;5.70;;;16.00;99.90;;;;;;5136515;27;20114;-74
2023/07/03 03:58:08;;;;;;;9.45;5.43;;;16.00;99.90;;;;;;5136695;27;20102;-74
2023/07/03 04:00:34;;;;;;;10.73;5.68;;;16.00;99.90;;;;;;5136607;27;20023;-72
2023/07/03 04:03:00;;;;;;;9.27;5.55;;;15.90;99.90;;;;;;5136529;27;20102;-74
2023/07/03 04:05:26;;;;;;;9.45;5.68;;;15.90;99.90;;;;;;5136515;27;20137;-74
2023/07/03 04:07:52;;;;;;;7.60;5.60;;;15.90;99.90;;;;;;5136389;27;20045;-73
2023/07/03 04:10:17;;;;;;;12.02;5.80;;;15.80;99.90;;;;;;5136464;27;20035;-73
2023/07/03 04:12:43;;;;;;;8.23;5.22;;;15.90;99.90;;;;;;5118178;27;20032;-73
2023/07/03 04:15:09;;;;;;;8.50;5.25;;;15.90;99.90;;;;;;5136154;27;20113;-72
2023/07/03 04:17:34;;;;;;;8.48;5.57;;;15.90;99.90;;;;;;5136228;27;20095;-73
2023/07/03 04:20:00;;;;;;;10.00;6.13;;;15.90;99.90;;;;;;5136248;27;20052;-72
2023/07/03 04:22:26;;;;;;;9.30;6.22;;;16.00;99.90;;;;;;5136120;27;20080;-72
2023/07/03 04:24:52;;;;;;;11.38;7.53;;;16.00;99.90;;;;;;5136465;27;20031;-72
2023/07/03 04:27:19;;;;;;;11.13;6.53;;;16.00;99.90;;;;;;5136108;27;20477;-73
2023/07/03 04:29:44;;;;;;;10.65;5.72;;;16.10;99.90;;;;;;5117619;27;20062;-73
2023/07/03 04:32:10;;;;;;;9.15;5.30;;;16.10;99.90;;;;;;5136540;27;20516;-72
2023/07/03 04:34:36;;;;;;;9.88;5.22;;;16.10;99.90;;;;;;5136048;27;20043;-72
2023/07/03 04:37:03;;;;;;;8.93;6.15;;;16.10;99.90;;;;;;5135885;27;20027;-73
2023/07/03 04:39:31;;;;;;;10.65;5.80;;;16.10;99.90;;;;;;5135833;27;20027;-72
2023/07/03 04:42:00;;;;;;;13.50;6.60;;;16.10;99.90;;;;;;5135793;27;20153;-73
2023/07/03 04:44:26;;;;;;;12.18;5.78;;;16.10;99.90;;;;;;5135787;27;20075;-73
2023/07/03 04:46:55;;;;;;;10.52;6.18;;;16.10;99.90;;;;;;5134871;27;20031;-73
2023/07/03 04:49:26;;;;;;;8.13;5.32;;;16.10;99.90;;;;;;5134936;27;20076;-73
2023/07/03 04:51:52;;;;;;;;;;;16.20;99.90;;;;;;5135337;27;20031;-73
2023/07/03 04:54:18;;;;;;;9.65;6.00;;;16.20;99.90;;;;;;5134639;27;19963;-73
2023/07/03 04:56:46;;;;;;;8.43;5.68;;;16.20;99.90;;;;;;5121264;27;20036;-73
2023/07/03 04:59:12;;;;;;;8.32;5.53;;;16.10;99.90;;;;;;5114906;28;20012;-73
2023/07/03 05:01:38;;;;;;;9.85;5.32;;;16.20;99.90;;;;;;5114932;28;20034;-73
2023/07/03 05:04:03;;;;;;;9.23;6.20;;;16.20;99.90;;;;;;5114808;28;20115;-73
2023/07/03 05:06:29;;;;;;;8.50;5.82;;;16.30;99.90;;;;;;5114210;28;20063;-73
2023/07/03 05:08:55;;;;;;;11.68;6.35;;;16.30;99.90;;;;;;5114197;28;20053;-73
2023/07/03 05:11:21;;;;;;;12.13;7.90;;;16.30;99.90;;;;;;5114123;28;20035;-73
2023/07/03 05:13:47;;;;;;;10.43;7.40;;;16.30;99.90;;;;;;5114533;28;20032;-73
2023/07/03 05:16:14;;;;;;;9.38;6.93;;;16.30;99.90;;;;;;5096399;28;20076;-73
2023/07/03 05:18:40;;;;;;;10.73;6.55;;;16.30;99.90;;;;;;5114756;28;20023;-73
2023/07/03 05:21:06;;;;;;;9.07;6.18;;;16.40;99.90;;;;;;5114458;28;20026;-73
2023/07/03 05:23:32;;;;;;;12.32;6.88;;;16.40;99.90;;;;;;5114363;28;20094;-73
2023/07/03 05:25:57;;;;;;;10.90;6.25;;;16.40;99.90;;;;;;5116712;27;20042;-73
2023/07/03 05:28:24;;;;;;;15.40;6.53;;;16.40;99.90;;;;;;5112587;28;20558;-73
2023/07/03 05:30:54;;;;;;;9.95;5.60;;;16.50;99.90;;;;;;5113104;28;20024;-73
2023/07/03 05:33:20;;;;;;;12.83;7.03;;;16.50;99.90;;;;;;5114292;28;20104;-72
2023/07/03 05:35:45;;;;;;;10.93;6.60;;;16.50;99.90;;;;;;5114077;28;20055;-73
2023/07/03 05:38:11;;;;;;;11.00;6.25;;;16.60;99.90;;;;;;5114448;28;20038;-73
2023/07/03 05:40:37;;;;;;;9.90;6.13;;;16.60;99.90;;;;;;5114177;28;20028;-72
2023/07/03 05:43:02;;;;;;;11.23;6.40;;;16.60;99.90;;;;;;5114100;28;20026;-73
2023/07/03 05:45:28;;;;;;;10.80;6.93;;;16.70;99.90;;;;;;5096164;28;20066;-73
2023/07/03 05:47:53;;;;;;;9.48;6.40;;;16.70;99.90;;;;;;5096155;28;20058;-72
2023/07/03 05:50:19;;;;;;;11.90;6.40;;;16.80;99.90;;;;;;5114062;28;20027;-73
2023/07/03 05:52:45;;;;;;;9.52;6.60;;;16.80;99.90;;;;;;5113982;28;20027;-73
2023/07/03 05:55:10;;;;;;;8.88;6.32;;;16.90;99.90;;;;;;5113802;28;20028;-72
2023/07/03 05:57:37;;;;;;;9.02;6.15;;;16.90;99.90;;;;;;5113897;28;20099;-72
2023/07/03 06:00:12;;;;;;;8.63;6.00;;;17.00;99.90;;;;;;5113876;28;20076;-73
2023/07/03 06:02:39;;;;;;;10.48;5.97;;;17.10;99.90;;;;;;5114299;28;20027;-73
2023/07/03 06:05:05;;;;;;;8.38;5.70;;;17.10;99.90;;;;;;5095604;28;20098;-73
2023/07/03 06:07:31;;;;;;;8.80;6.18;;;17.20;99.90;;;;;;5114052;28;20032;-72
2023/07/03 06:09:57;;;;;;;8.60;6.40;;;17.20;99.90;;;;;;5113742;28;20035;-72
2023/07/03 06:12:29;;;;;;;10.20;6.20;;;17.30;99.90;;;;;;5113821;28;20052;-72
2023/07/03 06:14:57;;;;;;;8.35;6.03;;;17.30;99.90;;;;;;5096469;28;20570;-72
2023/07/03 06:17:28;;;;;;;8.90;6.63;;;17.30;99.90;;;;;;5114316;28;20019;-72
2023/07/03 06:19:55;;;;;;;12.93;7.65;;;17.40;99.90;;;;;;5113703;28;20028;-72
2023/07/03 06:22:21;;;;;;;9.30;6.60;;;17.40;99.90;;;;;;5113934;28;20079;-72
2023/07/03 06:24:47;;;;;;;9.93;6.18;;;17.50;99.90;;;;;;5118257;28;20059;-72
2023/07/03 06:27:13;;;;;;;11.18;6.55;;;17.50;99.90;;;;;;5118866;28;20055;-72
2023/07/03 06:29:39;;;;;;;10.23;6.78;;;17.60;99.90;;;;;;5117907;28;20036;-73
2023/07/03 06:32:06;;;;;;;10.45;7.00;;;17.60;99.90;;;;;;5118049;28;20082;-73
2023/07/03 06:34:32;;;;;;;11.85;7.05;;;17.70;99.90;;;;;;5117572;28;20042;-72
2023/07/03 06:37:00;;;;;;;11.02;6.88;;;17.70;99.90;;;;;;5117701;28;20034;-72
2023/07/03 06:39:26;;;;;;;13.32;7.70;;;17.80;99.90;;;;;;5117950;28;20466;-72
2023/07/03 06:41:51;;;;;;;11.25;7.53;;;17.80;99.90;;;;;;5099231;28;20035;-73
2023/07/03 06:44:19;;;;;;;13.48;7.68;;;17.80;99.90;;;;;;5117666;28;20045;-73
2023/07/03 06:46:45;;;;;;;12.23;7.28;;;17.80;99.90;;;;;;5117497;28;20023;-73
2023/07/03 06:49:11;;;;;;;14.80;8.50;;;17.90;99.90;;;;;;5117455;28;20389;-72
2023/07/03 06:51:37;;;;;;;13.10;7.85;;;17.90;99.90;;;;;;5099426;28;20420;-73
2023/07/03 06:54:03;;;;;;;12.40;7.57;;;17.90;99.90;;;;;;5117408;28;20421;-72
2023/07/03 06:56:29;;;;;;;13.48;7.97;;;18.00;99.90;;;;;;5117305;28;20028;-73
2023/07/03 06:58:55;;;;;;;12.65;7.80;;;18.00;99.90;;;;;;5117511;28;20027;-72
2023/07/03 07:01:25;;;;;;;11.43;7.25;;;18.10;99.90;;;;;;5117178;28;20020;-72
2023/07/03 07:03:51;;;;;;;11.38;7.63;;;18.10;99.90;;;;;;5098720;28;20023;-73
2023/07/03 07:06:26;;;;;;;14.40;8.68;;;18.20;99.90;;;;;;5117399;28;20028;-72
2023/07/03 07:08:52;;;;;;;12.65;8.05;;;18.20;99.90;;;;;;5117030;28;20023;-72
2023/07/03 07:11:27;;;;;;;10.90;7.75;;;18.30;99.90;;;;;;5117323;28;20541;-73
2023/07/03 07:13:54;;;;;;;9.65;6.55;;;18.30;99.90;;;;;;5116825;28;20054;-73
2023/07/03 07:16:39;;;;;;;13.70;8.45;;;18.50;99.90;;;;;;5116997;28;20031;-73
2023/07/03 07:19:08;;;;;;;15.38;7.75;;;18.50;99.90;;;;;;5117082;28;20019;-73
2023/07/03 07:21:37;;;;;;;12.15;7.03;;;18.60;99.90;;;;;;5098502;28;20020;-72
2023/07/03 07:24:12;;;;;;;12.52;7.63;;;18.60;99.90;;;;;;5117201;28;20101;-72
2023/07/03 07:26:37;;;;;;;12.82;8.27;;;18.80;99.90;;;;;;5116714;28;20382;-73
2023/07/03 07:29:03;;;;;;;16.45;9.23;;;18.80;99.90;;;;;;5116812;28;20062;-72
2023/07/03 07:31:31;;;;;;;12.38;8.85;;;18.90;99.90;;;;;;5098579;28;20024;-72
2023/07/03 07:33:57;;;;;;;13.95;8.25;;;18.90;99.90;;;;;;5116535;28;20016;-72
2023/07/03 07:36:25;;;;;;;10.98;8.10;;;19.00;99.90;;;;;;5115745;28;20016;-73
2023/07/03 07:38:54;;;;;;;12.02;7.75;;;19.10;99.90;;;;;;5116481;28;20012;-72
2023/07/03 07:41:20;;;;;;;12.10;7.50;;;19.20;99.90;;;;;;5116446;28;20024;-72
2023/07/03 07:43:48;;;;;;;10.73;7.22;;;19.30;99.90;;;;;;5116386;28;20504;-72
2023/07/03 07:46:14;;;;;;;13.90;8.05;;;19.30;99.90;;;;;;5116369;28;20560;-72
2023/07/03 07:48:40;;;;;;;14.82;7.97;;;19.40;99.90;;;;;;5116271;28;20107;-72
2023/07/03 07:51:10;;;;;;;14.10;8.43;;;19.60;99.90;;;;;;5116526;28;20074;-72
2023/07/03 07:53:36;;;;;;;13.77;7.65;;;19.70;99.90;;;;;;5116274;28;20055;-72
2023/07/03 07:56:04;;;;;;;14.27;8.00;;;19.80;99.90;;;;;;5098095;28;20024;-72
2023/07/03 07:58:29;;;;;;;14.35;8.18;;;19.90;99.90;;;;;;5116962;28;20405;-72
2023/07/03 08:00:58;;;;;;;11.93;7.28;;;19.90;99.90;;;;;;5097860;28;20028;-72
2023/07/03 08:03:25;;;;;;;15.48;8.10;;;19.90;99.90;;;;;;5116567;28;20419;-72
2023/07/03 08:06:00;;;;;;;11.25;7.72;;;19.90;99.90;;;;;;5115890;28;20465;-72
2023/07/03 08:08:26;;;;;;;13.75;7.57;;;19.90;99.90;;;;;;5116208;28;20051;-72
2023/07/03 08:10:54;;;;;;;14.05;7.70;;;20.00;99.90;;;;;;5115833;28;20110;-72
2023/07/03 08:13:20;;;;;;;12.88;7.57;;;20.00;99.90;;;;;;5115728;28;20417;-72
2023/07/03 08:15:46;;;;;;;13.55;7.63;;;20.10;99.90;;;;;;5115629;28;20481;-72
2023/07/03 08:18:12;;;;;;;14.73;8.02;;;20.20;99.90;;;;;;5115726;28;20039;-72
2023/07/03 08:20:38;;;;;;;13.52;7.78;;;20.30;99.90;;;;;;5116263;28;20024;-72
2023/07/03 08:23:04;;;;;;;10.65;7.68;;;20.30;99.90;;;;;;5115572;28;20024;-72
2023/07/03 08:25:29;;;;;;;15.57;8.30;;;20.40;99.90;;;;;;5115558;28;20110;-72
2023/07/03 08:27:55;;;;;;;15.38;8.18;;;20.40;99.90;;;;;;5115576;28;20039;-72
2023/07/03 08:30:22;;;;;;;14.13;7.28;;;20.30;99.90;;;;;;5115482;28;20032;-72
2023/07/03 08:32:48;;;;;;;15.35;7.85;;;20.30;99.90;;;;;;5115762;28;20201;-72
2023/07/03 08:35:13;;;;;;;13.35;7.90;;;20.30;99.90;;;;;;5115320;28;20132;-72
2023/07/03 08:37:39;;;;;;;15.57;7.28;;;20.30;99.80;;;;;;5115380;28;20073;-72
2023/07/03 08:40:07;;;;;;;13.73;7.38;;;20.40;99.90;;;;;;5115341;28;20111;-72
2023/07/03 08:42:40;;;;;;;12.23;7.30;;;20.40;99.70;;;;;;5097338;28;20205;-72
2023/07/03 08:45:09;;;;;;;18.23;6.68;;;20.40;99.90;;;;;;5115275;28;20020;-72
2023/07/03 08:47:35;;;;;;;13.00;7.30;;;20.50;98.20;;;;;;5114036;28;20030;-72
2023/07/03 08:50:03;;;;;;;13.50;6.95;;;20.50;98.40;;;;;;5115069;28;20134;-72
2023/07/03 08:52:38;;;;;;;15.20;7.32;;;20.60;96.80;;;;;;5115105;28;20097;-72
2023/07/03 08:55:09;;;;;;;11.45;6.32;;;20.60;97.00;;;;;;5096666;28;20023;-72
2023/07/03 08:57:37;;;;;;;12.70;7.20;;;20.70;96.50;;;;;;5115508;28;20098;-72
2023/07/03 09:00:10;;;;;;;13.85;6.50;;;20.80;98.30;;;;;;5115196;28;20011;-72
2023/07/03 09:02:43;;;;;;;12.75;7.18;;;20.80;96.50;;;;;;5115203;28;20024;-72
2023/07/03 09:05:52;;;;;;;14.95;7.43;;;20.80;97.80;;;;;;5114924;28;20027;-72
2023/07/03 09:08:45;;;;;;;13.57;7.13;;;20.80;98.40;;;;;;5103556;28;20044;-72
2023/07/03 09:11:12;;;;;;;12.60;7.38;;;20.80;97.80;;;;;;5076973;28;20358;-72
2023/07/03 09:13:43;;;;;;;13.05;7.90;;;20.80;96.50;;;;;;5114490;28;20027;-72
2023/07/03 09:16:14;;;;;;;12.82;6.82;;;20.90;97.60;;;;;;5115059;28;20145;-72
2023/07/03 09:18:57;;;;;;;13.93;7.32;;;20.90;96.90;;;;;;5114524;28;20019;-72
2023/07/03 09:21:25;;;;;;;12.77;7.00;;;21.00;95.70;;;;;;5114542;28;20020;-72
2023/07/03 09:24:14;;;;;;;13.00;7.13;;;21.10;94.70;;;;;;5114393;28;20023;-72
2023/07/03 09:26:59;;;;;;;14.32;7.53;;;21.10;95.70;;;;;;5114748;28;20019;-72
2023/07/03 09:29:27;;;;;;;11.05;6.93;;;21.10;95.90;;;;;;5114726;28;20533;-72
2023/07/03 09:31:55;;;;;;;11.82;6.72;;;21.10;97.50;;;;;;5114344;28;20020;-72
2023/07/03 09:34:21;;;;;;;14.77;7.20;;;21.20;96.60;;;;;;5114224;28;20485;-72
2023/07/03 09:36:59;;;;;;;14.98;7.38;;;21.20;95.10;;;;;;5114291;28;20043;-72
2023/07/03 09:39:25;;;;;;;13.25;7.38;;;21.30;95.00;;;;;;5114329;28;20027;-72
2023/07/03 09:41:53;;;;;;;11.63;6.63;;;21.30;95.60;;;;;;5114410;28;20023;-72
2023/07/03 09:44:22;;;;;;;16.15;7.70;;;21.30;94.70;;;;;;5095948;28;20073;-72
2023/07/03 09:46:48;;;;;;;15.43;7.03;;;21.30;95.30;;;;;;5114517;28;20445;-72
2023/07/03 09:49:28;;;;;;;15.63;7.43;;;21.30;96.00;;;;;;5114491;28;20517;-72
2023/07/03 09:51:56;;;;;;;12.82;7.50;;;21.30;95.30;;;;;;5114573;28;20027;-72
2023/07/03 09:54:29;;;;;;;15.82;7.50;;;21.30;95.40;;;;;;5113857;28;20378;-72
2023/07/03 09:56:56;;;;;;;13.93;7.30;;;21.30;93.90;;;;;;5113850;28;20024;-72
2023/07/03 09:59:24;;;;;;;15.43;7.22;;;21.30;95.00;;;;;;5113479;28;20028;-72
2023/07/03 10:01:55;;;;;;;13.18;7.63;;;21.30;94.70;;;;;;5114998;28;20526;-72
2023/07/03 10:04:21;;;;;;;12.98;6.95;;;21.30;94.80;;;;;;5113982;28;20028;-72
2023/07/03 10:07:05;;;;;;;12.27;7.20;;;21.40;95.00;;;;;;5113812;28;20030;-72
2023/07/03 10:09:34;;;;;;;13.40;7.65;;;21.50;95.70;;;;;;5114110;28;20385;-72
2023/07/03 10:12:22;;;;;;;13.63;7.53;;;21.60;95.40;;;;;;5113745;28;20046;-72
2023/07/03 10:14:54;;;;;;;15.05;7.72;;;21.60;94.90;;;;;;5113400;28;20024;-72
2023/07/03 10:17:43;;;;;;;11.88;7.15;;;21.70;94.50;;;;;;5114024;28;20020;-72
2023/07/03 10:20:20;;;;;;;14.10;7.47;;;21.70;94.00;;;;;;5114466;28;20027;-72
2023/07/03 10:22:49;;;;;;;13.88;7.32;;;21.80;94.30;;;;;;5115191;28;20015;-72
2023/07/03 10:25:23;;;;;;;14.38;7.55;;;21.90;94.70;;;;;;5114807;28;20019;-72
2023/07/03 10:27:54;;;;;;;12.57;7.00;;;21.80;93.80;;;;;;5114013;28;20028;-72
2023/07/03 10:30:20;;;;;;;;;;;21.80;92.90;;;;;;5114110;28;20550;-72
2023/07/03 10:32:51;;;;;;;12.52;6.95;;;21.90;95.10;;;;;;5113606;28;19911;-72
2023/07/03 10:35:29;;;;;;;12.98;7.35;;;22.00;94.30;;;;;;5113581;28;20031;-72
2023/07/03 10:38:05;;;;;;;12.13;6.95;;;22.20;94.60;;;;;;5113764;28;20020;-72
2023/07/03 10:41:03;;;;;;;13.45;7.50;;;22.30;95.10;;;;;;5113576;28;20102;-72
2023/07/03 10:43:34;;;;;;;14.40;7.70;;;22.40;93.90;;;;;;5108234;28;20451;-72
2023/07/03 10:46:02;;;;;;;10.98;7.32;;;22.60;93.10;;;;;;5095133;28;20085;-71
2023/07/03 10:48:32;;;;;;;14.00;7.53;;;22.60;92.30;;;;;;5095513;28;20024;-72
2023/07/03 10:51:40;;;;;;;13.48;7.13;;;22.80;92.60;;;;;;5113894;28;20028;-72
2023/07/03 10:54:09;;;;;;;12.70;7.53;;;23.00;92.90;;;;;;5075130;28;20047;-72
2023/07/03 10:56:47;;;;;;;12.32;7.78;;;23.20;92.50;;;;;;5113366;28;20012;-71
2023/07/03 10:59:25;;;;;;;12.57;7.20;;;23.40;91.50;;;;;;5113484;28;20016;-71
2023/07/03 11:02:17;;;;;;;12.02;7.28;;;23.50;92.40;;;;;;5114129;28;20026;-72
2023/07/03 11:05:05;;;;;;;16.50;7.80;;;23.50;90.20;;;;;;5114977;28;20015;-72
2023/07/03 11:08:13;;;;;;;12.77;7.07;;;23.50;90.40;;;;;;5115308;28;20024;-72
2023/07/03 11:10:48;;;;;;;15.85;7.40;;;23.60;90.80;;;;;;5116164;28;20489;-72
2023/07/03 11:13:14;;;;;;;14.38;7.43;;;23.90;89.70;;;;;;5118321;28;20036;-72
2023/07/03 11:15:59;;;;;;;12.48;7.60;;;24.00;90.90;;;;;;5118211;28;20026;-71
2023/07/03 11:18:48;;;;;;;17.38;7.90;;;24.10;90.00;;;;;;5122189;27;20473;-72
2023/07/03 11:21:23;;;;;;;12.50;7.22;;;24.00;88.40;;;;;;5132399;27;20046;-71
2023/07/03 11:24:05;;;;;;;13.50;7.70;;;24.00;88.10;;;;;;5127918;27;20016;-71
2023/07/03 11:26:38;;;;;;;13.93;7.85;;;23.90;88.00;;;;;;5137731;27;20031;-72
2023/07/03 11:29:07;;;;;;;12.77;7.00;;;24.00;89.90;;;;;;5137559;27;20034;-71
2023/07/03 11:31:34;;;;;;;13.48;7.72;;;24.00;89.70;;;;;;5129313;27;20035;-71
2023/07/03 11:34:02;;;;;;;14.73;7.72;;;24.00;88.80;;;;;;5137780;27;20034;-71
2023/07/03 11:36:48;;;;;;;13.45;7.68;;;23.90;86.80;;;;;;5137366;27;20031;-71
2023/07/03 11:39:29;;;;;;;12.50;7.20;;;23.80;89.20;;;;;;5130382;27;20041;-71
2023/07/03 11:42:05;;;;;;;12.43;7.30;;;23.70;90.10;;;;;;5137377;27;20019;-71
2023/07/03 11:44:37;;;;;;;14.43;7.60;;;23.70;89.00;;;;;;5136871;27;20027;-72
2023/07/03 11:47:07;;;;;;;12.32;7.57;;;23.70;87.70;;;;;;5137113;27;20034;-71
2023/07/03 11:49:36;;;;;;;12.82;7.13;;;23.70;88.00;;;;;;5137017;27;20392;-71
2023/07/03 11:52:05;;;;;;;13.60;7.10;;;23.70;88.50;;;;;;5136901;27;20023;-71
2023/07/03 11:54:34;;;;;;;12.63;7.10;;;23.80;88.60;;;;;;5136772;27;20038;-71
2023/07/03 11:57:31;;;;;;;18.98;8.20;;;24.00;89.90;;;;;;5136856;27;20023;-71
2023/07/03 12:00:16;;;;;;;14.43;7.28;;;24.20;89.00;;;;;;5136839;27;20023;-71
2023/07/03 12:02:49;;;;;;;12.13;7.05;;;24.20;86.50;;;;;;5136883;27;20523;-71
2023/07/03 12:05:45;;;;;;;13.13;7.70;;;24.20;88.70;;;;;;5137686;27;20485;-71
2023/07/03 12:08:17;;;;;;;15.18;7.88;;;24.30;88.50;;;;;;5136733;27;20027;-71
2023/07/03 12:10:46;;;;;;;15.88;8.73;;;24.20;87.70;;;;;;5137354;27;20045;-71
2023/07/03 12:13:48;;;;;;;11.45;7.43;;;24.10;87.00;;;;;;5136316;27;20029;-72
2023/07/03 12:16:22;;;;;;;12.00;7.10;;;24.10;84.30;;;;;;5136326;27;20477;-71
2023/07/03 12:19:06;;;;;;;13.10;7.28;;;24.20;85.70;;;;;;5136368;27;20020;-71
2023/07/03 12:21:47;;;;;;;13.20;7.28;;;24.40;86.50;;;;;;5136319;27;20023;-71
2023/07/03 12:24:22;;;;;;;12.75;7.18;;;24.90;88.20;;;;;;5136429;27;20445;-71
2023/07/03 12:26:54;;;;;;;17.30;7.25;;;25.10;88.70;;;;;;5136253;27;20473;-71
2023/07/03 12:29:20;;;;;;;13.73;7.60;;;25.40;83.10;;;;;;5136434;27;20026;-71
2023/07/03 12:32:05;;;;;;;11.55;6.97;;;25.40;82.30;;;;;;5136052;27;20023;-71
2023/07/03 12:34:32;;;;;;;13.90;7.80;;;25.30;82.30;;;;;;5136173;27;20102;-71
2023/07/03 12:36:59;;;;;;;11.23;7.10;;;25.20;81.70;;;;;;5135960;27;20076;-71
2023/07/03 12:39:26;;;;;;;13.95;7.57;;;25.00;81.70;;;;;;5136251;27;20019;-71
2023/07/03 12:41:52;;;;;;;13.95;7.63;;;24.70;82.20;;;;;;5136146;27;20102;-71
2023/07/03 12:44:22;;;;;;;13.50;7.38;;;24.40;81.80;;;;;;5117706;27;20031;-71
2023/07/03 12:46:48;;;;;;;12.18;7.35;;;24.10;84.30;;;;;;5136106;27;20027;-71
2023/07/03 12:49:16;;;;;;;12.73;7.10;;;24.10;87.00;;;;;;5117368;27;20121;-71
2023/07/03 12:51:54;;;;;;;12.63;6.53;;;24.40;84.80;;;;;;5135690;27;20106;-71
2023/07/03 12:54:21;;;;;;;15.38;7.57;;;24.60;88.10;;;;;;5135535;27;20023;-71